Crooked Creek, Alaska
Current Conditions -  °F | °C
As of 5:36 AM on Wednesday 22 Oct 2014 (Local Time) from PASL Reporting Station
Clear Clear  
Wind Chill: 25°   Ceiling: Unl
Heat Index: 25°   Visibility: 10mi
Dew Point: 12°   Wind: 3mph
Humidity: 59%   Direction: 340°NNW
Pressure: 29.57"   Gusts: NA
Location:  61.88°N, 158.15°W
Report Text: PASL 221336Z AUTO 34003KT 10SM CLR M04/M11 A2957 RMK AO1
Loading
Personal Weather Stations






























Interactive Weather Map
Tropical Storm Tracking
New forecast layout! Learn more

10-Day Weather Forecast

Advertisements
Track Severe Weather on mobile